Time;durP1;ratioP1;P1;durP2;ratioP2;P2;SDS_P1;SDS_P2;PMS_P1;PMS_P2;Temp;Humidity;BMP_temperature;BMP_pressure;BME280_temperature;BME280_humidity;BME280_pressure;Samples;Min_cycle;Max_cycle;Signal;HPM_P1;HPM_P2
2022/09/24 00:01:31;;;;;;;8.77;3.60;;;13.60;66.50;;;;;;5091556;28;20053;-60
2022/09/24 00:03:59;;;;;;;5.70;3.22;;;13.60;66.50;;;;;;5085935;28;20021;-59
2022/09/24 00:06:26;;;;;;;5.88;3.55;;;13.60;66.50;;;;;;5074792;28;20051;-60
2022/09/24 00:08:54;;;;;;;8.68;3.15;;;13.50;66.50;;;;;;5091464;28;20020;-60
2022/09/24 00:11:22;;;;;;;5.05;3.33;;;13.50;66.50;;;;;;5083501;28;20036;-59
2022/09/24 00:13:50;;;;;;;4.32;2.97;;;13.50;66.60;;;;;;5083626;28;20024;-60
2022/09/24 00:16:17;;;;;;;5.00;2.80;;;13.50;66.70;;;;;;5103528;28;20028;-60
2022/09/24 00:18:43;;;;;;;4.28;2.97;;;13.40;66.60;;;;;;5092608;28;20055;-61
2022/09/24 00:21:12;;;;;;;4.03;3.00;;;13.40;66.60;;;;;;5086780;28;20060;-59
2022/09/24 00:23:38;;;;;;;4.05;2.80;;;13.40;66.80;;;;;;5089535;28;20025;-59
2022/09/24 00:28:50;;;;;;;3.50;2.75;;;13.30;66.70;;;;;;5088841;28;20039;-59
2022/09/24 00:31:16;;;;;;;3.35;2.95;;;13.30;66.60;;;;;;5096344;28;20463;-60
2022/09/24 00:33:42;;;;;;;4.82;3.10;;;13.30;66.70;;;;;;5080360;28;20036;-60
2022/09/24 00:36:08;;;;;;;6.32;3.20;;;13.30;66.70;;;;;;5082254;28;20025;-60
2022/09/24 00:38:34;;;;;;;4.05;3.00;;;13.20;66.80;;;;;;5071618;28;20024;-59
2022/09/24 00:41:00;;;;;;;5.95;4.68;;;13.20;66.90;;;;;;5102015;28;20020;-60
2022/09/24 00:43:36;;;;;;;11.52;5.80;;;13.20;66.90;;;;;;5070784;28;20498;-60
2022/09/24 00:46:18;;;;;;;6.93;4.20;;;13.20;67.50;;;;;;5075295;28;20075;-60
2022/09/24 00:48:46;;;;;;;5.22;3.00;;;13.20;67.20;;;;;;5087139;28;20059;-60
2022/09/24 00:51:16;;;;;;;6.15;3.28;;;13.10;66.90;;;;;;5083385;28;20036;-59
2022/09/24 00:53:44;;;;;;;4.97;3.38;;;13.10;67.00;;;;;;5078179;28;20032;-61
2022/09/24 00:56:14;;;;;;;5.35;3.63;;;13.10;67.10;;;;;;5096883;28;20037;-59
2022/09/24 00:58:44;;;;;;;4.18;3.13;;;13.10;67.30;;;;;;5081004;28;20032;-59
2022/09/24 01:01:10;;;;;;;4.03;3.22;;;13.10;67.30;;;;;;5083777;28;20029;-60
2022/09/24 01:03:39;;;;;;;4.10;3.28;;;13.10;67.30;;;;;;5107159;28;20096;-61
2022/09/24 01:06:06;;;;;;;5.03;3.20;;;13.10;67.30;;;;;;5086273;28;20028;-59
2022/09/24 01:08:32;;;;;;;6.90;3.30;;;13.10;67.30;;;;;;5099726;28;20021;-60
2022/09/24 01:11:25;;;;;;;6.38;3.47;;;13.00;67.30;;;;;;5093394;28;20033;-59
2022/09/24 01:13:59;;;;;;;4.72;3.28;;;13.00;68.00;;;;;;5074875;28;20036;-60
2022/09/24 01:16:30;;;;;;;4.05;3.10;;;13.00;67.40;;;;;;5080957;28;20044;-59
2022/09/24 01:18:56;;;;;;;5.22;3.38;;;12.90;67.40;;;;;;5081959;28;20060;-59
2022/09/24 01:21:49;;;;;;;5.15;3.63;;;13.00;67.50;;;;;;5086358;28;20100;-59
2022/09/24 01:24:34;;;;;;;6.65;3.28;;;13.00;68.40;;;;;;5080532;28;20085;-59
2022/09/24 01:27:19;;;;;;;6.40;3.40;;;12.90;67.50;;;;;;5079492;28;20051;-59
2022/09/24 01:29:45;;;;;;;;;;;12.90;68.30;;;;;;5088945;28;20028;-61
2022/09/24 01:32:24;;;;;;;6.63;2.90;;;13.00;67.90;;;;;;5084755;28;19913;-59
2022/09/24 01:34:57;;;;;;;4.75;2.50;;;12.90;67.30;;;;;;5092608;28;20032;-59
2022/09/24 01:37:27;;;;;;;3.75;2.80;;;12.90;67.40;;;;;;5073638;28;20029;-59
2022/09/24 01:39:55;;;;;;;4.93;3.65;;;12.90;67.50;;;;;;5085877;28;20041;-60
2022/09/24 01:42:24;;;;;;;7.25;3.45;;;12.80;67.40;;;;;;5086880;28;20052;-61
2022/09/24 01:44:50;;;;;;;4.00;3.08;;;12.80;67.50;;;;;;5080342;28;20021;-61
2022/09/24 01:47:22;;;;;;;6.15;3.10;;;12.80;67.50;;;;;;5084948;28;20068;-60
2022/09/24 01:49:52;;;;;;;7.35;3.15;;;12.80;67.80;;;;;;5081425;28;20503;-60
2022/09/24 01:52:21;;;;;;;5.55;3.10;;;12.80;67.50;;;;;;5079720;28;20118;-59
2022/09/24 01:54:51;;;;;;;3.67;3.20;;;12.80;67.80;;;;;;5077666;28;20340;-59
2022/09/24 01:57:22;;;;;;;4.53;3.08;;;12.80;67.80;;;;;;5069931;28;20087;-59
2022/09/24 01:59:58;;;;;;;6.38;3.70;;;12.80;68.00;;;;;;5079491;28;20093;-59
2022/09/24 02:02:42;;;;;;;9.45;4.00;;;12.80;68.10;;;;;;5067964;28;20039;-59
2022/09/24 02:05:18;;;;;;;3.72;3.10;;;12.70;68.50;;;;;;5074567;28;20023;-58
2022/09/24 02:07:54;;;;;;;6.13;3.50;;;12.70;68.10;;;;;;5084119;28;20075;-60
2022/09/24 02:10:20;;;;;;;4.78;3.47;;;12.70;68.00;;;;;;5086196;28;20031;-59
2022/09/24 02:12:51;;;;;;;5.00;3.30;;;12.70;67.70;;;;;;5099126;28;20518;-59
2022/09/24 02:15:29;;;;;;;4.22;3.25;;;12.60;67.90;;;;;;5064905;28;20047;-59
2022/09/24 02:17:58;;;;;;;3.88;3.20;;;12.60;68.30;;;;;;5091624;28;20070;-60
2022/09/24 02:20:27;;;;;;;9.63;3.72;;;12.60;67.90;;;;;;5084493;28;20243;-59
2022/09/24 02:22:56;;;;;;;5.47;3.70;;;12.60;67.90;;;;;;5082373;28;20024;-60
2022/09/24 02:25:30;;;;;;;5.35;3.40;;;12.50;67.90;;;;;;5105988;28;20038;-59
2022/09/24 02:27:56;;;;;;;;;;;12.50;67.90;;;;;;5078759;28;20064;-59
2022/09/24 02:30:22;;;;;;;7.55;3.20;;;12.50;67.80;;;;;;5106825;28;20339;-61
2022/09/24 02:32:49;;;;;;;4.57;3.38;;;12.50;67.00;;;;;;5071893;28;20096;-60
2022/09/24 02:35:16;;;;;;;7.30;3.72;;;12.50;67.40;;;;;;5073424;28;20090;-61
2022/09/24 02:37:43;;;;;;;4.72;3.08;;;12.40;67.40;;;;;;5078123;28;20025;-59
2022/09/24 02:40:12;;;;;;;4.47;2.97;;;12.40;67.60;;;;;;5071811;28;20051;-59
2022/09/24 02:42:41;;;;;;;5.93;3.10;;;12.30;67.60;;;;;;5070451;28;20020;-60
2022/09/24 02:45:07;;;;;;;6.70;3.83;;;12.30;67.70;;;;;;5086306;28;20020;-59
2022/09/24 02:47:33;;;;;;;5.72;4.18;;;12.30;67.90;;;;;;5068413;28;20100;-61
2022/09/24 02:49:59;;;;;;;4.65;3.60;;;12.30;68.00;;;;;;5047995;28;1158014;-60
2022/09/24 02:52:25;;;;;;;4.10;3.10;;;12.30;68.20;;;;;;5075255;28;20419;-59
2022/09/24 02:54:52;;;;;;;4.15;3.10;;;12.30;68.30;;;;;;5076476;28;20074;-60
2022/09/24 02:57:18;;;;;;;4.22;3.30;;;12.20;68.20;;;;;;5082693;28;20541;-60
2022/09/24 02:59:44;;;;;;;6.45;3.30;;;12.30;68.30;;;;;;5086854;28;20107;-59
2022/09/24 03:02:10;;;;;;;3.65;2.80;;;12.30;68.30;;;;;;5085156;28;20037;-60
2022/09/24 03:04:36;;;;;;;3.28;2.97;;;12.30;68.30;;;;;;5095830;28;20421;-59
2022/09/24 03:07:02;;;;;;;5.40;3.15;;;12.30;68.40;;;;;;5083058;28;20041;-59
2022/09/24 03:09:29;;;;;;;4.90;3.25;;;12.30;68.30;;;;;;5082001;28;20028;-60
2022/09/24 03:11:59;;;;;;;5.15;3.40;;;12.30;68.40;;;;;;5084685;28;20021;-60
2022/09/24 03:14:25;;;;;;;5.72;3.38;;;12.30;68.30;;;;;;5076909;28;20029;-58
2022/09/24 03:16:51;;;;;;;3.90;3.42;;;12.30;68.20;;;;;;5082942;28;20081;-59
2022/09/24 03:19:16;;;;;;;4.90;3.17;;;12.30;68.30;;;;;;5074188;28;20054;-59
2022/09/24 03:21:42;;;;;;;7.07;3.70;;;12.20;68.30;;;;;;5087159;28;20071;-58
2022/09/24 03:24:07;;;;;;;5.63;3.95;;;12.20;68.30;;;;;;5084316;28;20470;-60
2022/09/24 03:26:33;;;;;;;5.00;3.63;;;12.20;68.30;;;;;;5090269;28;20029;-61
2022/09/24 03:28:59;;;;;;;14.93;3.90;;;12.20;68.30;;;;;;5090985;28;20112;-59
2022/09/24 03:31:24;;;;;;;6.15;3.53;;;12.20;68.30;;;;;;5098957;28;20036;-60
2022/09/24 03:33:50;;;;;;;6.25;4.15;;;12.20;68.40;;;;;;5081316;28;20025;-61
2022/09/24 03:36:19;;;;;;;7.25;3.63;;;12.20;68.60;;;;;;5096901;28;20031;-59
2022/09/24 03:38:47;;;;;;;5.70;3.63;;;12.20;68.70;;;;;;5102000;28;20024;-60
2022/09/24 03:41:13;;;;;;;6.88;4.15;;;12.20;68.70;;;;;;5090821;28;20597;-59
2022/09/24 03:43:40;;;;;;;6.47;3.65;;;12.20;68.60;;;;;;5096561;28;20064;-60
2022/09/24 03:46:06;;;;;;;6.18;3.40;;;12.20;68.60;;;;;;5079920;28;20080;-60
2022/09/24 03:48:34;;;;;;;5.22;4.28;;;12.30;68.70;;;;;;5084873;28;20040;-59
2022/09/24 03:51:15;;;;;;;7.30;3.90;;;12.30;68.80;;;;;;5018707;28;20578;-60
2022/09/24 03:53:41;;;;;;;7.57;3.90;;;12.20;69.20;;;;;;5080835;28;20048;-61
2022/09/24 03:56:08;;;;;;;5.68;4.20;;;12.20;68.60;;;;;;5089245;28;20029;-60
2022/09/24 03:58:37;;;;;;;12.40;3.88;;;12.30;68.70;;;;;;5079315;28;20053;-60
2022/09/24 04:01:04;;;;;;;6.10;3.83;;;12.20;68.70;;;;;;5065603;28;20203;-60
2022/09/24 04:03:30;;;;;;;6.18;4.07;;;12.20;68.60;;;;;;5097755;28;20074;-59
2022/09/24 04:05:56;;;;;;;5.22;3.40;;;12.20;68.70;;;;;;5092380;28;20029;-60
2022/09/24 04:08:22;;;;;;;7.43;3.78;;;12.20;68.80;;;;;;5097143;28;20105;-60
2022/09/24 04:10:49;;;;;;;18.67;8.43;;;12.20;68.90;;;;;;5104168;28;20028;-59
2022/09/24 04:13:16;;;;;;;53.13;24.25;;;12.20;69.10;;;;;;5082060;28;20043;-60
2022/09/24 04:15:42;;;;;;;49.05;24.40;;;12.20;69.20;;;;;;5064997;28;20021;-59
2022/09/24 04:18:08;;;;;;;38.55;18.58;;;12.20;69.10;;;;;;5087324;28;20116;-59
2022/09/24 04:20:34;;;;;;;56.75;23.52;;;12.20;69.10;;;;;;5075463;28;20083;-59
2022/09/24 04:23:00;;;;;;;26.85;13.63;;;12.20;69.10;;;;;;5072194;28;20033;-60
2022/09/24 04:25:29;;;;;;;12.48;7.15;;;12.20;69.00;;;;;;5084903;28;20057;-59
2022/09/24 04:28:06;;;;;;;7.20;4.90;;;12.20;69.10;;;;;;5089759;28;20051;-60
2022/09/24 04:30:32;;;;;;;6.68;4.20;;;12.30;69.40;;;;;;5081542;28;20170;-59
2022/09/24 04:33:01;;;;;;;7.00;4.47;;;12.30;69.00;;;;;;5083188;28;20052;-59
2022/09/24 04:35:30;;;;;;;6.10;4.45;;;12.20;69.10;;;;;;5076015;28;20025;-58
2022/09/24 04:37:58;;;;;;;7.05;3.90;;;12.20;69.00;;;;;;5069742;28;20025;-60
2022/09/24 04:40:24;;;;;;;7.00;4.20;;;12.20;68.90;;;;;;5079724;28;20029;-59
2022/09/24 04:42:49;;;;;;;5.07;3.75;;;12.20;69.80;;;;;;5084835;28;20058;-59
2022/09/24 04:45:18;;;;;;;5.55;4.18;;;12.20;69.00;;;;;;5086519;28;20363;-59
2022/09/24 04:47:44;;;;;;;4.78;3.80;;;12.20;69.00;;;;;;5084540;28;20032;-60
2022/09/24 04:50:10;;;;;;;5.22;3.65;;;12.20;69.10;;;;;;5086865;28;20121;-58
2022/09/24 04:52:36;;;;;;;6.07;3.65;;;12.20;69.20;;;;;;5072674;28;20036;-60
2022/09/24 04:55:03;;;;;;;8.20;3.88;;;12.20;69.20;;;;;;5078254;28;20472;-61
2022/09/24 04:57:33;;;;;;;8.48;4.50;;;12.20;69.40;;;;;;5095369;28;20162;-61
2022/09/24 04:59:59;;;;;;;8.35;4.10;;;12.20;69.40;;;;;;5075977;28;20044;-59
2022/09/24 05:02:25;;;;;;;8.80;4.22;;;12.20;69.40;;;;;;5102716;28;20032;-59
2022/09/24 05:04:50;;;;;;;4.72;3.85;;;12.20;69.40;;;;;;5075745;28;20025;-58
2022/09/24 05:07:16;;;;;;;8.57;3.67;;;12.20;69.50;;;;;;5103148;28;20146;-60
2022/09/24 05:09:42;;;;;;;6.95;4.00;;;12.20;69.40;;;;;;5076085;28;20511;-58
2022/09/24 05:12:07;;;;;;;6.97;3.72;;;12.20;69.40;;;;;;5103336;28;20482;-60
2022/09/24 05:14:33;;;;;;;4.95;3.75;;;12.20;69.50;;;;;;5085604;28;20039;-60
2022/09/24 05:16:59;;;;;;;7.60;4.03;;;12.20;69.40;;;;;;5078617;28;20081;-61
2022/09/24 05:19:24;;;;;;;10.13;4.45;;;12.20;69.60;;;;;;5078875;28;20059;-59
2022/09/24 05:21:50;;;;;;;8.93;4.55;;;12.20;69.60;;;;;;5094052;28;20025;-61
2022/09/24 05:24:16;;;;;;;7.22;4.43;;;12.20;69.60;;;;;;5097106;28;20033;-61
2022/09/24 05:29:26;;;;;;;5.20;4.07;;;12.30;69.70;;;;;;5078589;28;20047;-58
2022/09/24 05:31:52;;;;;;;6.88;4.55;;;12.30;69.60;;;;;;5066651;28;20033;-59
2022/09/24 05:34:18;;;;;;;5.43;4.15;;;12.30;69.70;;;;;;5095830;28;20076;-61
2022/09/24 05:36:44;;;;;;;7.22;4.40;;;12.30;69.80;;;;;;5080043;28;20056;-59
2022/09/24 05:39:11;;;;;;;7.47;4.25;;;12.30;70.00;;;;;;5089609;28;20035;-60
2022/09/24 05:41:38;;;;;;;35.22;13.75;;;12.30;70.00;;;;;;5069034;28;20105;-59
2022/09/24 05:44:04;;;;;;;27.23;11.05;;;12.30;70.00;;;;;;5098320;28;20036;-59
2022/09/24 05:46:31;;;;;;;21.70;10.05;;;12.40;69.90;;;;;;5098838;28;20041;-60
2022/09/24 05:48:57;;;;;;;17.63;9.93;;;12.40;69.80;;;;;;5079532;28;20040;-59
2022/09/24 05:51:23;;;;;;;19.50;9.73;;;12.40;70.00;;;;;;5086936;28;20084;-60
2022/09/24 05:53:49;;;;;;;16.05;7.70;;;12.40;70.10;;;;;;5100087;28;20055;-59
2022/09/24 05:56:15;;;;;;;10.95;5.90;;;12.40;70.10;;;;;;5108370;28;20028;-60
2022/09/24 05:58:41;;;;;;;10.00;5.25;;;12.40;70.10;;;;;;5077499;28;20040;-59
2022/09/24 06:01:06;;;;;;;9.68;5.32;;;12.50;70.20;;;;;;5106962;28;20020;-59
2022/09/24 06:03:32;;;;;;;6.97;5.07;;;12.50;70.30;;;;;;5088659;28;20041;-59
2022/09/24 06:06:01;;;;;;;6.53;4.68;;;12.50;70.40;;;;;;5086879;28;20460;-61
2022/09/24 06:08:28;;;;;;;8.30;5.35;;;12.60;70.50;;;;;;5086451;28;20036;-59
2022/09/24 06:10:58;;;;;;;7.32;5.22;;;12.60;70.50;;;;;;5087682;28;20453;-59
2022/09/24 06:13:24;;;;;;;11.20;4.88;;;12.70;70.60;;;;;;5101007;28;20024;-60
2022/09/24 06:15:50;;;;;;;7.35;4.78;;;12.70;70.30;;;;;;5088628;28;20039;-60
2022/09/24 06:18:15;;;;;;;7.15;4.35;;;12.70;70.30;;;;;;5075372;28;20025;-60
2022/09/24 06:20:41;;;;;;;10.55;5.43;;;12.70;70.20;;;;;;5084504;28;20032;-58
2022/09/24 06:23:07;;;;;;;11.20;5.45;;;12.80;70.20;;;;;;5074399;28;20061;-59
2022/09/24 06:25:33;;;;;;;11.45;5.30;;;12.80;70.30;;;;;;5084611;28;20021;-59
2022/09/24 06:28:01;;;;;;;7.07;4.35;;;12.80;70.20;;;;;;5088039;28;20430;-60
2022/09/24 06:30:37;;;;;;;8.68;4.45;;;12.80;70.10;;;;;;5091725;28;20029;-60
2022/09/24 06:33:12;;;;;;;6.18;4.22;;;12.90;70.20;;;;;;5070114;28;20098;-59
2022/09/24 06:35:40;;;;;;;6.57;4.82;;;12.90;70.20;;;;;;5089967;28;20035;-58
2022/09/24 06:38:07;;;;;;;6.75;4.25;;;13.00;70.10;;;;;;5098152;28;20033;-60
2022/09/24 06:40:33;;;;;;;7.75;3.97;;;12.90;70.10;;;;;;5089745;28;20084;-58
2022/09/24 06:42:59;;;;;;;6.75;4.60;;;13.00;70.30;;;;;;5083408;28;20048;-60
2022/09/24 06:45:25;;;;;;;6.97;5.03;;;13.00;70.10;;;;;;5090942;28;20028;-58
2022/09/24 06:47:56;;;;;;;7.35;5.07;;;13.10;70.00;;;;;;5101911;28;20028;-58
2022/09/24 06:50:23;;;;;;;10.77;5.45;;;13.10;70.30;;;;;;5078619;28;20057;-59
2022/09/24 06:52:48;;;;;;;9.38;5.65;;;13.20;70.20;;;;;;5078780;28;20029;-58
2022/09/24 06:55:15;;;;;;;10.20;5.75;;;13.20;70.10;;;;;;5083336;28;20047;-58
2022/09/24 06:57:41;;;;;;;9.88;5.90;;;13.30;70.10;;;;;;5075336;28;20029;-59
2022/09/24 07:00:07;;;;;;;14.20;6.18;;;13.30;70.00;;;;;;5085204;28;20040;-59
2022/09/24 07:02:33;;;;;;;11.23;6.25;;;13.40;70.10;;;;;;5086218;28;20082;-59
2022/09/24 07:04:59;;;;;;;8.40;6.10;;;13.50;70.20;;;;;;5091855;28;20020;-60
2022/09/24 07:07:33;;;;;;;10.73;6.20;;;13.60;70.20;;;;;;5082437;28;20045;-60
2022/09/24 07:10:01;;;;;;;7.35;5.53;;;13.60;70.10;;;;;;5098846;28;20092;-58
2022/09/24 07:12:31;;;;;;;10.52;6.10;;;13.80;70.10;;;;;;5077140;28;20100;-59
2022/09/24 07:14:59;;;;;;;9.93;5.45;;;13.90;70.00;;;;;;5076193;28;20053;-61
2022/09/24 07:17:25;;;;;;;10.05;5.53;;;14.00;69.80;;;;;;5089290;28;20048;-59
2022/09/24 07:19:51;;;;;;;12.70;6.45;;;14.20;69.60;;;;;;5086916;28;20025;-60
2022/09/24 07:22:17;;;;;;;8.23;6.18;;;14.20;69.30;;;;;;5088405;28;20025;-59
2022/09/24 07:24:44;;;;;;;11.05;6.88;;;14.30;69.20;;;;;;5091118;28;20036;-58
2022/09/24 07:27:10;;;;;;;12.10;6.72;;;14.40;68.90;;;;;;5080040;28;20040;-59
2022/09/24 07:29:35;;;;;;;12.38;7.15;;;14.50;68.90;;;;;;5103367;28;20020;-59
2022/09/24 07:32:02;;;;;;;17.80;8.85;;;14.50;68.90;;;;;;5098652;28;20028;-59
2022/09/24 07:34:28;;;;;;;12.05;7.93;;;14.60;68.90;;;;;;5100218;28;20047;-60
2022/09/24 07:36:55;;;;;;;12.63;7.28;;;14.70;68.80;;;;;;5102342;28;20020;-59
2022/09/24 07:39:24;;;;;;;9.98;7.80;;;14.70;68.70;;;;;;5098536;28;20055;-61
2022/09/24 07:41:54;;;;;;;12.40;7.50;;;14.80;68.70;;;;;;5085330;28;20162;-61
2022/09/24 07:44:21;;;;;;;13.98;7.55;;;14.80;68.80;;;;;;5081985;28;20032;-59
2022/09/24 07:46:51;;;;;;;12.48;8.80;;;14.90;68.80;;;;;;5102454;28;20036;-58
2022/09/24 07:49:17;;;;;;;12.20;8.00;;;15.00;68.80;;;;;;5089863;28;20425;-59
2022/09/24 07:51:43;;;;;;;13.10;7.70;;;15.10;68.60;;;;;;5083363;28;20032;-60
2022/09/24 07:54:09;;;;;;;11.15;7.65;;;15.20;68.60;;;;;;5097790;28;20055;-61
2022/09/24 07:56:35;;;;;;;15.23;8.82;;;15.30;68.80;;;;;;5087764;28;20088;-59
2022/09/24 07:59:01;;;;;;;11.60;7.65;;;15.40;69.00;;;;;;5082998;28;20041;-59
2022/09/24 08:01:26;;;;;;;10.82;8.10;;;15.50;68.90;;;;;;5086220;28;20033;-60
2022/09/24 08:03:53;;;;;;;12.02;8.13;;;15.60;68.60;;;;;;5084850;28;20024;-61
2022/09/24 08:06:21;;;;;;;13.13;7.68;;;15.70;68.50;;;;;;5077450;28;20037;-60
2022/09/24 08:08:55;;;;;;;12.15;7.43;;;15.70;68.30;;;;;;5073063;28;20036;-58
2022/09/24 08:11:21;;;;;;;11.27;7.60;;;15.80;68.40;;;;;;5073427;28;20029;-61
2022/09/24 08:13:47;;;;;;;12.38;7.78;;;15.90;68.10;;;;;;5104555;28;20093;-59
2022/09/24 08:16:13;;;;;;;12.85;8.40;;;15.90;67.80;;;;;;5085238;28;20095;-61
2022/09/24 08:18:38;;;;;;;14.45;9.40;;;15.90;67.70;;;;;;5102084;28;20032;-58
2022/09/24 08:21:10;;;;;;;14.40;8.95;;;15.90;67.70;;;;;;5070246;28;20029;-59
2022/09/24 08:23:38;;;;;;;13.18;8.63;;;15.90;67.60;;;;;;5065592;28;20024;-61
2022/09/24 08:26:04;;;;;;;13.07;8.73;;;15.90;67.50;;;;;;5074304;28;20067;-61
2022/09/24 08:28:30;;;;;;;13.00;8.70;;;15.90;67.60;;;;;;5080929;28;20029;-59
2022/09/24 08:31:00;;;;;;;12.88;8.52;;;15.90;67.60;;;;;;5086219;28;20029;-60
2022/09/24 08:33:31;;;;;;;13.38;8.30;;;15.90;67.70;;;;;;5091065;28;20029;-59
2022/09/24 08:35:59;;;;;;;14.40;8.13;;;16.00;67.90;;;;;;5073213;28;20046;-60
2022/09/24 08:38:25;;;;;;;10.75;8.02;;;16.00;68.00;;;;;;5075998;28;20031;-58
2022/09/24 08:41:12;;;;;;;10.88;8.15;;;16.00;67.90;;;;;;5083503;28;20103;-60
2022/09/24 08:43:40;;;;;;;10.65;7.45;;;16.00;68.40;;;;;;5082439;28;20025;-59
2022/09/24 08:49:26;;;;;;;14.57;8.02;;;16.00;69.10;;;;;;5088726;28;20062;-60
2022/09/24 08:52:14;;;;;;;10.05;7.07;;;16.00;68.50;;;;;;5020880;28;20055;-59
2022/09/24 08:54:43;;;;;;;13.60;7.38;;;16.10;69.20;;;;;;5070653;28;20035;-58
2022/09/24 08:57:16;;;;;;;11.00;8.20;;;16.10;68.80;;;;;;5088119;28;20414;-60
2022/09/24 08:59:46;;;;;;;11.38;8.15;;;16.10;69.80;;;;;;5067515;28;20032;-57
2022/09/24 09:02:37;;;;;;;14.73;7.82;;;16.20;69.30;;;;;;5081625;28;20032;-60
2022/09/24 09:05:05;;;;;;;10.63;6.93;;;16.20;69.60;;;;;;5074168;28;20029;-59
2022/09/24 09:08:01;;;;;;;10.48;6.78;;;16.30;69.40;;;;;;5080812;28;20776;-58
2022/09/24 09:10:32;;;;;;;10.45;7.72;;;16.40;69.70;;;;;;5089432;28;20036;-59
2022/09/24 09:13:31;;;;;;;9.48;7.30;;;16.40;69.00;;;;;;5074130;28;20033;-58
2022/09/24 09:16:13;;;;;;;9.25;6.72;;;16.50;69.30;;;;;;5091282;28;20037;-59
2022/09/24 09:18:42;;;;;;;11.40;7.22;;;16.60;69.00;;;;;;5082968;28;20032;-59
2022/09/24 09:21:20;;;;;;;8.68;7.07;;;16.60;68.70;;;;;;5090657;28;20036;-58
2022/09/24 09:23:51;;;;;;;14.85;7.47;;;16.60;68.90;;;;;;5068360;28;20356;-60
2022/09/24 09:26:19;;;;;;;13.98;7.88;;;16.70;69.00;;;;;;5086991;28;20041;-59
2022/09/24 09:28:46;;;;;;;9.88;7.88;;;16.70;68.80;;;;;;5108299;28;20016;-59
2022/09/24 09:31:30;;;;;;;11.32;8.30;;;16.70;69.00;;;;;;5087480;28;20064;-59
2022/09/24 09:34:28;;;;;;;9.82;7.63;;;16.80;70.00;;;;;;5074130;28;20040;-59
2022/09/24 09:37:28;;;;;;;12.43;7.80;;;16.80;69.90;;;;;;5093585;28;20039;-59
2022/09/24 09:40:08;;;;;;;8.07;7.03;;;16.90;70.20;;;;;;5076326;28;20031;-58
2022/09/24 09:42:38;;;;;;;11.48;7.05;;;16.90;69.30;;;;;;5090162;28;20016;-57
2022/09/24 09:45:32;;;;;;;8.80;7.07;;;16.90;69.40;;;;;;5093866;28;20029;-58
2022/09/24 09:48:00;;;;;;;8.95;6.85;;;17.00;70.40;;;;;;5067490;28;20200;-59
2022/09/24 09:50:43;;;;;;;10.00;7.00;;;17.00;70.00;;;;;;5091888;28;20126;-58
2022/09/24 09:53:24;;;;;;;8.32;6.50;;;17.00;71.50;;;;;;5096260;28;20088;-58
2022/09/24 09:55:56;;;;;;;8.38;6.53;;;17.10;71.70;;;;;;5081659;28;20029;-59
2022/09/24 09:58:25;;;;;;;6.68;5.25;;;17.20;71.10;;;;;;5099381;28;20082;-61
2022/09/24 10:00:52;;;;;;;6.57;4.85;;;17.20;70.80;;;;;;5087527;28;20037;-59
2022/09/24 10:03:31;;;;;;;5.55;4.97;;;17.30;70.80;;;;;;5107344;28;20107;-60
2022/09/24 10:06:05;;;;;;;5.85;3.72;;;17.40;71.00;;;;;;5083313;28;20486;-60
2022/09/24 10:08:31;;;;;;;;;;;17.50;70.70;;;;;;5107899;28;20047;-60
2022/09/24 10:10:59;;;;;;;6.45;3.35;;;17.50;70.30;;;;;;5086733;28;19908;-60
2022/09/24 10:13:26;;;;;;;4.95;3.08;;;17.60;69.90;;;;;;5107446;28;20028;-59
2022/09/24 10:15:57;;;;;;;3.75;3.05;;;17.60;70.00;;;;;;5086665;28;20044;-60
2022/09/24 10:18:42;;;;;;;6.13;3.97;;;17.70;69.90;;;;;;5067376;28;20099;-59
2022/09/24 10:21:23;;;;;;;7.85;3.70;;;17.70;70.60;;;;;;5084872;28;20055;-59
2022/09/24 10:23:50;;;;;;;5.05;3.38;;;17.80;70.20;;;;;;5067076;28;20120;-60
2022/09/24 10:26:16;;;;;;;6.78;3.03;;;17.80;70.00;;;;;;5090606;28;20032;-59
2022/09/24 10:31:37;;;;;;;4.68;2.38;;;17.90;70.20;;;;;;5082592;28;20036;-60
2022/09/24 10:34:16;;;;;;;4.15;3.10;;;18.00;70.00;;;;;;5106628;28;20458;-60
2022/09/24 10:36:51;;;;;;;3.58;2.35;;;18.10;69.80;;;;;;5081912;28;20029;-59
2022/09/24 10:39:16;;;;;;;;;;;18.10;70.20;;;;;;5067415;28;20029;-60
2022/09/24 10:41:51;;;;;;;4.13;1.98;;;18.20;69.90;;;;;;5085461;28;20023;-60
2022/09/24 10:44:17;;;;;;;;;;;18.30;69.50;;;;;;5107250;28;20032;-61
2022/09/24 10:47:07;;;;;;;4.70;2.35;;;18.40;69.30;;;;;;5086240;28;19917;-60
2022/09/24 10:49:38;;;;;;;5.15;2.60;;;18.40;69.20;;;;;;5094136;28;20070;-59
2022/09/24 10:52:19;;;;;;;5.95;2.80;;;18.50;68.70;;;;;;5094990;28;20032;-59
2022/09/24 10:54:55;;;;;;;5.35;2.70;;;18.50;68.90;;;;;;5066669;28;20029;-59
2022/09/24 10:57:37;;;;;;;3.65;2.85;;;18.50;68.60;;;;;;5107267;28;20020;-58
2022/09/24 11:00:08;;;;;;;3.63;2.95;;;18.50;68.40;;;;;;5071774;28;20363;-58
2022/09/24 11:02:38;;;;;;;3.20;2.30;;;18.60;68.40;;;;;;5106940;28;20028;-60
2022/09/24 11:05:11;;;;;;;4.75;2.53;;;18.60;68.20;;;;;;5078328;28;20653;-59
2022/09/24 11:07:55;;;;;;;3.95;2.75;;;18.60;68.20;;;;;;5073988;28;20032;-60
2022/09/24 11:10:51;;;;;;;5.03;2.65;;;18.60;68.50;;;;;;5068062;28;20053;-59
2022/09/24 11:13:39;;;;;;;4.18;2.63;;;18.60;67.90;;;;;;5066323;28;20037;-59
2022/09/24 11:16:22;;;;;;;5.35;3.53;;;18.70;67.70;;;;;;5076607;28;20031;-59
2022/09/24 11:19:03;;;;;;;8.13;4.00;;;18.70;68.60;;;;;;5105109;28;20032;-58
2022/09/24 11:22:01;;;;;;;8.30;4.22;;;18.70;68.20;;;;;;5079337;28;20025;-59
2022/09/24 11:24:45;;;;;;;9.35;4.25;;;18.70;68.60;;;;;;5063917;28;20048;-60
2022/09/24 11:27:29;;;;;;;6.78;4.05;;;18.70;68.30;;;;;;5065860;28;20045;-58
2022/09/24 11:30:09;;;;;;;5.85;3.65;;;18.80;68.80;;;;;;5101956;28;20137;-59
2022/09/24 11:32:38;;;;;;;8.50;4.15;;;18.80;68.30;;;;;;5065735;28;20037;-61
2022/09/24 11:35:17;;;;;;;5.03;3.55;;;18.80;68.30;;;;;;5101246;28;20091;-60
2022/09/24 11:38:02;;;;;;;6.35;3.20;;;18.80;68.70;;;;;;5084934;28;20032;-58
2022/09/24 11:40:42;;;;;;;6.32;4.07;;;18.70;68.40;;;;;;5075048;28;20038;-59
2022/09/24 11:43:31;;;;;;;11.50;6.18;;;18.70;68.20;;;;;;5104588;28;20115;-60
2022/09/24 11:46:24;;;;;;;13.98;7.53;;;18.70;68.90;;;;;;5084856;28;20047;-60
2022/09/24 11:49:34;;;;;;;15.52;7.90;;;18.70;69.00;;;;;;5071567;28;20051;-59
2022/09/24 11:52:17;;;;;;;8.07;5.07;;;18.70;69.30;;;;;;5039818;28;20042;-59
2022/09/24 11:54:51;;;;;;;6.93;4.60;;;18.70;68.90;;;;;;5063185;28;20040;-59
2022/09/24 11:57:22;;;;;;;5.82;4.18;;;18.70;68.80;;;;;;5023435;28;20040;-58
2022/09/24 12:00:13;;;;;;;9.73;4.53;;;18.70;69.00;;;;;;5062105;28;20037;-59
2022/09/24 12:02:51;;;;;;;7.55;4.38;;;18.70;69.40;;;;;;5022958;28;20088;-59
2022/09/24 12:05:34;;;;;;;6.18;4.45;;;18.70;68.90;;;;;;5061089;28;20029;-59
2022/09/24 12:08:14;;;;;;;7.55;4.97;;;18.60;68.80;;;;;;5042574;28;20049;-59
2022/09/24 12:10:48;;;;;;;6.70;4.97;;;18.60;69.00;;;;;;5047050;28;20029;-59
2022/09/24 12:13:32;;;;;;;9.32;5.75;;;18.60;69.20;;;;;;5033197;28;20037;-59
2022/09/24 12:16:07;;;;;;;8.45;5.60;;;18.60;69.10;;;;;;5053306;28;20069;-59
2022/09/24 12:18:35;;;;;;;7.85;5.75;;;18.50;69.00;;;;;;5042595;28;20057;-59
2022/09/24 12:21:06;;;;;;;8.38;6.57;;;18.50;68.90;;;;;;5044538;28;20041;-58
2022/09/24 12:23:38;;;;;;;7.68;6.15;;;18.40;69.30;;;;;;5070460;28;20029;-59
2022/09/24 12:26:05;;;;;;;9.00;6.50;;;18.40;69.40;;;;;;5077801;28;20098;-62
2022/09/24 12:35:02;;;;;;;9.52;7.57;;;18.20;70.50;;;;;;5084468;28;20109;-60
2022/09/24 12:37:32;;;;;;;10.93;8.07;;;18.20;70.50;;;;;;5089555;28;20028;-58
2022/09/24 12:40:12;;;;;;;12.52;8.98;;;18.20;70.70;;;;;;5092603;28;20036;-59
2022/09/24 12:42:53;;;;;;;12.55;7.93;;;18.20;71.00;;;;;;5071695;28;20441;-60
2022/09/24 12:45:21;;;;;;;13.25;7.97;;;18.20;71.20;;;;;;5063584;28;20033;-58
2022/09/24 12:47:59;;;;;;;7.97;5.93;;;18.20;70.80;;;;;;5086118;28;20044;-58
2022/09/24 12:50:28;;;;;;;8.38;5.82;;;18.20;71.00;;;;;;5072533;28;20067;-59
2022/09/24 12:52:54;;;;;;;7.07;6.05;;;18.20;70.40;;;;;;5096679;28;20025;-59
2022/09/24 12:55:26;;;;;;;7.35;5.97;;;18.20;70.50;;;;;;5098921;28;20494;-58
2022/09/24 12:58:02;;;;;;;7.38;5.78;;;18.20;70.90;;;;;;5075050;28;20071;-59
2022/09/24 13:00:31;;;;;;;6.80;5.68;;;18.20;71.20;;;;;;5073161;28;20043;-59
2022/09/24 13:02:57;;;;;;;6.10;5.15;;;18.20;71.00;;;;;;5068892;28;20095;-60
2022/09/24 13:05:26;;;;;;;6.22;5.60;;;18.30;71.00;;;;;;5089343;28;20044;-60
2022/09/24 13:08:22;;;;;;;8.95;5.75;;;18.30;71.00;;;;;;5089618;28;20062;-59
2022/09/24 13:10:59;;;;;;;6.25;5.53;;;18.30;71.90;;;;;;5082137;28;20075;-60
2022/09/24 13:13:27;;;;;;;6.78;5.22;;;18.40;71.50;;;;;;5080632;28;20048;-59
2022/09/24 13:16:18;;;;;;;5.95;5.40;;;18.40;71.10;;;;;;5084959;28;20025;-60
2022/09/24 13:18:53;;;;;;;6.13;4.97;;;18.30;71.50;;;;;;5068514;28;20044;-58
2022/09/24 13:21:23;;;;;;;7.85;5.07;;;18.40;71.30;;;;;;5090891;28;20017;-59
2022/09/24 13:23:50;;;;;;;6.38;4.88;;;18.40;71.10;;;;;;5093995;28;20024;-59